Terminal Aerodrome Forecast
Issued by NWS Northern Indiana

Home | Current Version | Previous Version | Text Only | Print | Product List | Glossary On
Versions: 1 2 3 4 5 6 7 8 9 10 11 12 13
460
FTUS43 KIWX 260537
TAFFWA
TAF
KFWA 260537Z 2606/2706 26007KT P6SM SCT080
     FM261500 28013G21KT P6SM FEW050 SCT100
     FM261800 28014G22KT P6SM SCT050 BKN100
     FM270000 28008KT P6SM BKN100=

USA.gov is the U.S. government's official web portal to all federal, state and local government web resources and services.